sensor_id;sensor_type;location;lat;lon;timestamp;P1;durP1;ratioP1;P2;durP2;ratioP2
21266;SDS011;10791;53.108;18.326;2023-08-07T00:01:17;0.77;;;0.50;;
21266;SDS011;10791;53.108;18.326;2023-08-07T00:06:21;2.57;;;0.70;;
21266;SDS011;10791;53.108;18.326;2023-08-07T00:11:24;2.00;;;0.63;;
21266;SDS011;10791;53.108;18.326;2023-08-07T00:16:27;0.83;;;0.50;;
21266;SDS011;10791;53.108;18.326;2023-08-07T00:21:31;6.83;;;0.77;;
21266;SDS011;10791;53.108;18.326;2023-08-07T00:26:34;2.10;;;0.60;;
21266;SDS011;10791;53.108;18.326;2023-08-07T00:31:37;1.57;;;0.77;;
21266;SDS011;10791;53.108;18.326;2023-08-07T00:36:41;1.60;;;1.00;;
21266;SDS011;10791;53.108;18.326;2023-08-07T00:41:44;1.27;;;0.70;;
21266;SDS011;10791;53.108;18.326;2023-08-07T00:46:47;3.27;;;1.10;;
21266;SDS011;10791;53.108;18.326;2023-08-07T00:51:51;1.50;;;1.23;;
21266;SDS011;10791;53.108;18.326;2023-08-07T00:56:56;1.40;;;1.00;;
21266;SDS011;10791;53.108;18.326;2023-08-07T01:02:06;1.93;;;1.17;;
21266;SDS011;10791;53.108;18.326;2023-08-07T01:07:10;3.10;;;1.20;;
21266;SDS011;10791;53.108;18.326;2023-08-07T01:12:19;1.73;;;1.03;;
21266;SDS011;10791;53.108;18.326;2023-08-07T01:17:25;1.70;;;0.77;;
21266;SDS011;10791;53.108;18.326;2023-08-07T01:22:29;2.90;;;0.90;;
21266;SDS011;10791;53.108;18.326;2023-08-07T01:27:36;2.20;;;1.07;;
21266;SDS011;10791;53.108;18.326;2023-08-07T01:38:15;1.10;;;0.60;;
21266;SDS011;10791;53.108;18.326;2023-08-07T01:43:19;0.73;;;0.60;;
21266;SDS011;10791;53.108;18.326;2023-08-07T01:48:23;1.97;;;0.70;;
21266;SDS011;10791;53.108;18.326;2023-08-07T01:53:28;1.17;;;0.67;;
21266;SDS011;10791;53.108;18.326;2023-08-07T01:58:31;0.97;;;0.50;;
21266;SDS011;10791;53.108;18.326;2023-08-07T02:03:36;0.77;;;0.40;;
21266;SDS011;10791;53.108;18.326;2023-08-07T02:08:39;0.80;;;0.50;;
21266;SDS011;10791;53.108;18.326;2023-08-07T02:13:42;0.90;;;0.47;;
21266;SDS011;10791;53.108;18.326;2023-08-07T02:18:46;0.70;;;0.40;;
21266;SDS011;10791;53.108;18.326;2023-08-07T02:23:49;2.93;;;0.40;;
21266;SDS011;10791;53.108;18.326;2023-08-07T02:28:53;0.67;;;0.47;;
21266;SDS011;10791;53.108;18.326;2023-08-07T02:33:56;1.47;;;0.67;;
21266;SDS011;10791;53.108;18.326;2023-08-07T02:38:59;1.37;;;0.50;;
21266;SDS011;10791;53.108;18.326;2023-08-07T02:44:02;0.50;;;0.30;;
21266;SDS011;10791;53.108;18.326;2023-08-07T02:49:06;1.40;;;0.63;;
21266;SDS011;10791;53.108;18.326;2023-08-07T02:54:09;0.73;;;0.50;;
21266;SDS011;10791;53.108;18.326;2023-08-07T02:59:13;2.17;;;0.40;;
21266;SDS011;10791;53.108;18.326;2023-08-07T03:04:16;0.30;;;0.30;;
21266;SDS011;10791;53.108;18.326;2023-08-07T03:09:19;0.50;;;0.30;;
21266;SDS011;10791;53.108;18.326;2023-08-07T03:14:22;0.60;;;0.33;;
21266;SDS011;10791;53.108;18.326;2023-08-07T03:19:26;1.53;;;0.60;;
21266;SDS011;10791;53.108;18.326;2023-08-07T03:24:30;1.37;;;0.50;;
21266;SDS011;10791;53.108;18.326;2023-08-07T03:29:33;1.13;;;0.70;;
21266;SDS011;10791;53.108;18.326;2023-08-07T03:34:37;4.50;;;0.63;;
21266;SDS011;10791;53.108;18.326;2023-08-07T03:39:40;0.60;;;0.40;;
21266;SDS011;10791;53.108;18.326;2023-08-07T03:44:46;1.03;;;0.60;;
21266;SDS011;10791;53.108;18.326;2023-08-07T03:49:50;1.97;;;0.50;;
21266;SDS011;10791;53.108;18.326;2023-08-07T03:54:55;0.40;;;0.40;;
21266;SDS011;10791;53.108;18.326;2023-08-07T03:59:59;1.23;;;0.60;;
21266;SDS011;10791;53.108;18.326;2023-08-07T04:05:02;1.47;;;0.70;;
21266;SDS011;10791;53.108;18.326;2023-08-07T04:10:06;0.87;;;0.57;;
21266;SDS011;10791;53.108;18.326;2023-08-07T04:15:09;0.90;;;0.63;;
21266;SDS011;10791;53.108;18.326;2023-08-07T04:20:13;1.10;;;0.53;;
21266;SDS011;10791;53.108;18.326;2023-08-07T04:25:19;1.10;;;0.50;;
21266;SDS011;10791;53.108;18.326;2023-08-07T04:30:22;1.07;;;0.53;;
21266;SDS011;10791;53.108;18.326;2023-08-07T04:35:26;1.70;;;0.80;;
21266;SDS011;10791;53.108;18.326;2023-08-07T04:40:30;0.80;;;0.60;;
21266;SDS011;10791;53.108;18.326;2023-08-07T04:45:33;1.00;;;0.50;;
21266;SDS011;10791;53.108;18.326;2023-08-07T04:50:38;1.53;;;0.60;;
21266;SDS011;10791;53.108;18.326;2023-08-07T04:55:42;0.93;;;0.53;;
21266;SDS011;10791;53.108;18.326;2023-08-07T05:00:46;0.67;;;0.40;;
21266;SDS011;10791;53.108;18.326;2023-08-07T05:05:49;0.97;;;0.47;;
21266;SDS011;10791;53.108;18.326;2023-08-07T05:10:53;1.20;;;0.63;;
21266;SDS011;10791;53.108;18.326;2023-08-07T05:15:57;0.90;;;0.60;;
21266;SDS011;10791;53.108;18.326;2023-08-07T05:21:01;1.17;;;0.70;;
21266;SDS011;10791;53.108;18.326;2023-08-07T05:26:05;0.73;;;0.60;;
21266;SDS011;10791;53.108;18.326;2023-08-07T05:31:08;2.40;;;0.87;;
21266;SDS011;10791;53.108;18.326;2023-08-07T05:36:12;1.33;;;0.70;;
21266;SDS011;10791;53.108;18.326;2023-08-07T05:41:18;1.80;;;1.13;;
21266;SDS011;10791;53.108;18.326;2023-08-07T05:46:22;1.73;;;0.90;;
21266;SDS011;10791;53.108;18.326;2023-08-07T05:51:25;1.30;;;0.80;;
21266;SDS011;10791;53.108;18.326;2023-08-07T05:56:28;1.33;;;0.83;;
21266;SDS011;10791;53.108;18.326;2023-08-07T06:01:32;1.20;;;0.80;;
21266;SDS011;10791;53.108;18.326;2023-08-07T06:06:38;2.00;;;0.67;;
21266;SDS011;10791;53.108;18.326;2023-08-07T06:11:42;2.00;;;0.87;;
21266;SDS011;10791;53.108;18.326;2023-08-07T06:16:45;3.07;;;0.80;;
21266;SDS011;10791;53.108;18.326;2023-08-07T06:21:49;1.10;;;0.80;;
21266;SDS011;10791;53.108;18.326;2023-08-07T06:26:52;1.30;;;0.87;;
21266;SDS011;10791;53.108;18.326;2023-08-07T06:31:55;2.83;;;1.17;;
21266;SDS011;10791;53.108;18.326;2023-08-07T06:36:59;2.33;;;1.30;;
21266;SDS011;10791;53.108;18.326;2023-08-07T06:42:04;1.53;;;1.20;;
21266;SDS011;10791;53.108;18.326;2023-08-07T06:47:08;1.60;;;1.30;;
21266;SDS011;10791;53.108;18.326;2023-08-07T06:52:12;2.67;;;1.77;;
21266;SDS011;10791;53.108;18.326;2023-08-07T06:57:15;2.90;;;1.50;;
21266;SDS011;10791;53.108;18.326;2023-08-07T07:02:19;2.70;;;1.60;;
21266;SDS011;10791;53.108;18.326;2023-08-07T07:07:22;3.17;;;1.43;;
21266;SDS011;10791;53.108;18.326;2023-08-07T07:12:25;4.90;;;2.00;;
21266;SDS011;10791;53.108;18.326;2023-08-07T07:17:31;3.03;;;1.30;;
21266;SDS011;10791;53.108;18.326;2023-08-07T07:22:35;2.70;;;1.43;;
21266;SDS011;10791;53.108;18.326;2023-08-07T07:27:39;2.50;;;1.23;;
21266;SDS011;10791;53.108;18.326;2023-08-07T07:32:42;5.00;;;1.10;;
21266;SDS011;10791;53.108;18.326;2023-08-07T07:37:45;1.80;;;1.30;;
21266;SDS011;10791;53.108;18.326;2023-08-07T07:42:48;2.43;;;1.40;;
21266;SDS011;10791;53.108;18.326;2023-08-07T07:47:52;2.53;;;1.10;;
21266;SDS011;10791;53.108;18.326;2023-08-07T07:52:55;1.57;;;0.93;;
21266;SDS011;10791;53.108;18.326;2023-08-07T07:58:02;6.47;;;1.30;;
21266;SDS011;10791;53.108;18.326;2023-08-07T08:03:05;3.40;;;1.20;;
21266;SDS011;10791;53.108;18.326;2023-08-07T08:08:09;1.67;;;0.87;;
21266;SDS011;10791;53.108;18.326;2023-08-07T08:13:14;2.17;;;1.07;;
21266;SDS011;10791;53.108;18.326;2023-08-07T08:18:18;1.57;;;1.03;;
21266;SDS011;10791;53.108;18.326;2023-08-07T08:23:21;2.27;;;0.90;;
21266;SDS011;10791;53.108;18.326;2023-08-07T08:28:25;1.87;;;1.10;;
21266;SDS011;10791;53.108;18.326;2023-08-07T08:33:28;3.50;;;0.90;;
21266;SDS011;10791;53.108;18.326;2023-08-07T08:38:31;2.03;;;1.17;;
21266;SDS011;10791;53.108;18.326;2023-08-07T08:43:36;2.72;;;1.25;;
21266;SDS011;10791;53.108;18.326;2023-08-07T08:48:42;2.85;;;1.35;;
21266;SDS011;10791;53.108;18.326;2023-08-07T08:53:50;3.00;;;1.25;;
21266;SDS011;10791;53.108;18.326;2023-08-07T08:58:56;2.50;;;1.17;;
21266;SDS011;10791;53.108;18.326;2023-08-07T09:03:59;2.15;;;0.93;;
21266;SDS011;10791;53.108;18.326;2023-08-07T09:09:03;1.63;;;0.98;;
21266;SDS011;10791;53.108;18.326;2023-08-07T09:14:07;5.03;;;0.90;;
21266;SDS011;10791;53.108;18.326;2023-08-07T09:19:12;5.05;;;1.30;;
21266;SDS011;10791;53.108;18.326;2023-08-07T09:24:15;1.77;;;0.90;;
21266;SDS011;10791;53.108;18.326;2023-08-07T09:29:26;3.30;;;1.35;;
21266;SDS011;10791;53.108;18.326;2023-08-07T09:34:31;1.65;;;0.80;;
21266;SDS011;10791;53.108;18.326;2023-08-07T09:39:34;1.90;;;1.10;;
21266;SDS011;10791;53.108;18.326;2023-08-07T09:44:38;2.70;;;1.00;;
21266;SDS011;10791;53.108;18.326;2023-08-07T09:49:45;2.10;;;1.05;;
21266;SDS011;10791;53.108;18.326;2023-08-07T09:54:48;2.72;;;1.00;;
21266;SDS011;10791;53.108;18.326;2023-08-07T09:59:51;1.40;;;0.75;;
21266;SDS011;10791;53.108;18.326;2023-08-07T10:04:55;1.55;;;0.85;;
21266;SDS011;10791;53.108;18.326;2023-08-07T10:09:58;1.73;;;0.75;;
21266;SDS011;10791;53.108;18.326;2023-08-07T10:15:06;3.15;;;1.33;;
21266;SDS011;10791;53.108;18.326;2023-08-07T10:20:10;2.90;;;0.82;;
21266;SDS011;10791;53.108;18.326;2023-08-07T10:25:18;3.50;;;0.82;;
21266;SDS011;10791;53.108;18.326;2023-08-07T10:30:24;1.70;;;0.93;;
21266;SDS011;10791;53.108;18.326;2023-08-07T10:35:32;4.07;;;0.93;;
21266;SDS011;10791;53.108;18.326;2023-08-07T10:41:12;3.00;;;1.17;;
21266;SDS011;10791;53.108;18.326;2023-08-07T10:46:15;1.60;;;1.08;;
21266;SDS011;10791;53.108;18.326;2023-08-07T10:51:28;2.10;;;1.10;;
21266;SDS011;10791;53.108;18.326;2023-08-07T10:56:35;1.52;;;1.00;;
21266;SDS011;10791;53.108;18.326;2023-08-07T11:01:40;4.90;;;1.35;;
21266;SDS011;10791;53.108;18.326;2023-08-07T11:06:46;3.45;;;1.00;;
21266;SDS011;10791;53.108;18.326;2023-08-07T11:11:50;2.63;;;1.40;;
21266;SDS011;10791;53.108;18.326;2023-08-07T11:16:57;2.92;;;1.00;;
21266;SDS011;10791;53.108;18.326;2023-08-07T11:22:01;1.85;;;1.30;;
21266;SDS011;10791;53.108;18.326;2023-08-07T11:27:07;3.03;;;1.42;;
21266;SDS011;10791;53.108;18.326;2023-08-07T11:32:14;2.63;;;1.20;;
21266;SDS011;10791;53.108;18.326;2023-08-07T11:37:19;4.80;;;1.65;;
21266;SDS011;10791;53.108;18.326;2023-08-07T11:43:32;4.05;;;1.60;;
21266;SDS011;10791;53.108;18.326;2023-08-07T11:48:37;2.28;;;1.38;;
21266;SDS011;10791;53.108;18.326;2023-08-07T11:53:42;3.65;;;1.80;;
21266;SDS011;10791;53.108;18.326;2023-08-07T11:58:46;2.60;;;1.75;;
21266;SDS011;10791;53.108;18.326;2023-08-07T12:03:56;2.88;;;2.05;;
21266;SDS011;10791;53.108;18.326;2023-08-07T12:09:11;2.83;;;1.67;;
21266;SDS011;10791;53.108;18.326;2023-08-07T12:14:15;3.72;;;1.88;;
21266;SDS011;10791;53.108;18.326;2023-08-07T12:19:20;4.18;;;2.25;;
21266;SDS011;10791;53.108;18.326;2023-08-07T12:24:28;2.97;;;1.70;;
21266;SDS011;10791;53.108;18.326;2023-08-07T12:29:48;3.60;;;1.90;;
21266;SDS011;10791;53.108;18.326;2023-08-07T12:41:27;6.28;;;1.40;;
21266;SDS011;10791;53.108;18.326;2023-08-07T12:46:36;2.92;;;1.10;;
21266;SDS011;10791;53.108;18.326;2023-08-07T12:51:46;2.97;;;1.60;;
21266;SDS011;10791;53.108;18.326;2023-08-07T12:56:52;2.97;;;1.40;;
21266;SDS011;10791;53.108;18.326;2023-08-07T13:01:59;3.20;;;1.70;;
21266;SDS011;10791;53.108;18.326;2023-08-07T13:07:07;4.90;;;1.58;;
21266;SDS011;10791;53.108;18.326;2023-08-07T13:12:11;1.98;;;0.98;;
21266;SDS011;10791;53.108;18.326;2023-08-07T13:17:14;3.30;;;1.23;;
21266;SDS011;10791;53.108;18.326;2023-08-07T13:22:17;5.40;;;1.10;;
21266;SDS011;10791;53.108;18.326;2023-08-07T13:27:20;3.65;;;1.25;;
21266;SDS011;10791;53.108;18.326;2023-08-07T13:32:24;3.45;;;1.52;;
21266;SDS011;10791;53.108;18.326;2023-08-07T13:37:28;2.58;;;1.25;;
21266;SDS011;10791;53.108;18.326;2023-08-07T13:42:32;2.80;;;1.23;;
21266;SDS011;10791;53.108;18.326;2023-08-07T13:47:36;2.40;;;1.10;;
21266;SDS011;10791;53.108;18.326;2023-08-07T13:52:40;3.67;;;1.58;;
21266;SDS011;10791;53.108;18.326;2023-08-07T13:57:44;2.97;;;1.40;;
21266;SDS011;10791;53.108;18.326;2023-08-07T14:02:48;2.45;;;1.15;;
21266;SDS011;10791;53.108;18.326;2023-08-07T14:07:53;3.58;;;1.40;;
21266;SDS011;10791;53.108;18.326;2023-08-07T14:12:57;6.28;;;1.25;;
21266;SDS011;10791;53.108;18.326;2023-08-07T14:18:00;4.03;;;1.65;;
21266;SDS011;10791;53.108;18.326;2023-08-07T14:23:04;6.25;;;1.40;;
21266;SDS011;10791;53.108;18.326;2023-08-07T14:28:22;3.65;;;1.38;;
21266;SDS011;10791;53.108;18.326;2023-08-07T14:33:28;1.73;;;1.02;;
21266;SDS011;10791;53.108;18.326;2023-08-07T14:38:32;2.20;;;0.82;;
21266;SDS011;10791;53.108;18.326;2023-08-07T14:43:35;2.83;;;1.15;;
21266;SDS011;10791;53.108;18.326;2023-08-07T14:48:41;1.40;;;0.65;;
21266;SDS011;10791;53.108;18.326;2023-08-07T14:53:54;1.80;;;0.90;;
21266;SDS011;10791;53.108;18.326;2023-08-07T14:59:04;4.32;;;1.30;;
21266;SDS011;10791;53.108;18.326;2023-08-07T15:04:10;1.98;;;0.93;;
21266;SDS011;10791;53.108;18.326;2023-08-07T15:09:16;3.42;;;0.98;;
21266;SDS011;10791;53.108;18.326;2023-08-07T15:14:21;1.67;;;0.90;;
21266;SDS011;10791;53.108;18.326;2023-08-07T15:19:25;3.63;;;1.60;;
21266;SDS011;10791;53.108;18.326;2023-08-07T15:24:28;4.40;;;1.10;;
21266;SDS011;10791;53.108;18.326;2023-08-07T15:29:31;5.60;;;1.15;;
21266;SDS011;10791;53.108;18.326;2023-08-07T15:34:35;2.70;;;1.50;;
21266;SDS011;10791;53.108;18.326;2023-08-07T15:39:41;2.65;;;1.00;;
21266;SDS011;10791;53.108;18.326;2023-08-07T15:44:46;3.92;;;1.17;;
21266;SDS011;10791;53.108;18.326;2023-08-07T15:49:49;3.65;;;1.23;;
21266;SDS011;10791;53.108;18.326;2023-08-07T15:54:53;3.38;;;0.80;;
21266;SDS011;10791;53.108;18.326;2023-08-07T15:59:57;5.32;;;1.60;;
21266;SDS011;10791;53.108;18.326;2023-08-07T16:05:01;3.35;;;1.40;;
21266;SDS011;10791;53.108;18.326;2023-08-07T16:10:07;3.58;;;1.33;;
21266;SDS011;10791;53.108;18.326;2023-08-07T16:15:10;5.22;;;1.33;;
21266;SDS011;10791;53.108;18.326;2023-08-07T16:20:14;2.63;;;1.20;;
21266;SDS011;10791;53.108;18.326;2023-08-07T16:25:17;2.90;;;1.35;;
21266;SDS011;10791;53.108;18.326;2023-08-07T16:30:21;3.22;;;1.40;;
21266;SDS011;10791;53.108;18.326;2023-08-07T16:35:25;2.88;;;1.20;;
21266;SDS011;10791;53.108;18.326;2023-08-07T16:40:28;3.10;;;1.33;;
21266;SDS011;10791;53.108;18.326;2023-08-07T16:45:37;3.85;;;1.60;;
21266;SDS011;10791;53.108;18.326;2023-08-07T16:50:42;4.50;;;1.23;;
21266;SDS011;10791;53.108;18.326;2023-08-07T16:56:03;3.22;;;1.48;;
21266;SDS011;10791;53.108;18.326;2023-08-07T17:01:07;2.70;;;1.70;;
21266;SDS011;10791;53.108;18.326;2023-08-07T17:06:10;4.05;;;1.42;;
21266;SDS011;10791;53.108;18.326;2023-08-07T17:11:14;3.13;;;1.73;;
21266;SDS011;10791;53.108;18.326;2023-08-07T17:16:18;3.45;;;1.42;;
21266;SDS011;10791;53.108;18.326;2023-08-07T17:21:24;4.40;;;1.60;;
21266;SDS011;10791;53.108;18.326;2023-08-07T17:26:27;2.33;;;1.40;;
21266;SDS011;10791;53.108;18.326;2023-08-07T17:31:34;4.28;;;2.10;;
21266;SDS011;10791;53.108;18.326;2023-08-07T17:36:38;4.43;;;1.73;;
21266;SDS011;10791;53.108;18.326;2023-08-07T17:41:43;3.50;;;1.73;;
21266;SDS011;10791;53.108;18.326;2023-08-07T17:46:49;3.10;;;1.90;;
21266;SDS011;10791;53.108;18.326;2023-08-07T17:51:56;2.78;;;1.40;;
21266;SDS011;10791;53.108;18.326;2023-08-07T17:57:03;3.42;;;1.75;;
21266;SDS011;10791;53.108;18.326;2023-08-07T18:02:07;3.22;;;1.55;;
21266;SDS011;10791;53.108;18.326;2023-08-07T18:07:11;2.88;;;1.40;;
21266;SDS011;10791;53.108;18.326;2023-08-07T18:12:15;2.78;;;1.48;;
21266;SDS011;10791;53.108;18.326;2023-08-07T18:17:19;3.15;;;1.73;;
21266;SDS011;10791;53.108;18.326;2023-08-07T18:22:23;5.07;;;1.75;;
21266;SDS011;10791;53.108;18.326;2023-08-07T18:27:29;6.55;;;2.65;;
21266;SDS011;10791;53.108;18.326;2023-08-07T18:32:33;2.17;;;1.10;;
21266;SDS011;10791;53.108;18.326;2023-08-07T18:37:40;5.75;;;2.38;;
21266;SDS011;10791;53.108;18.326;2023-08-07T18:42:44;4.85;;;1.50;;
21266;SDS011;10791;53.108;18.326;2023-08-07T18:47:49;4.00;;;1.40;;
21266;SDS011;10791;53.108;18.326;2023-08-07T18:52:53;4.05;;;1.90;;
21266;SDS011;10791;53.108;18.326;2023-08-07T18:57:57;4.72;;;2.10;;
21266;SDS011;10791;53.108;18.326;2023-08-07T19:03:01;4.70;;;1.80;;
21266;SDS011;10791;53.108;18.326;2023-08-07T19:08:07;3.40;;;1.85;;
21266;SDS011;10791;53.108;18.326;2023-08-07T19:13:12;5.80;;;1.67;;
21266;SDS011;10791;53.108;18.326;2023-08-07T19:18:16;9.48;;;1.67;;
21266;SDS011;10791;53.108;18.326;2023-08-07T19:23:20;5.25;;;1.35;;
21266;SDS011;10791;53.108;18.326;2023-08-07T19:28:24;6.55;;;1.42;;
21266;SDS011;10791;53.108;18.326;2023-08-07T19:33:29;5.40;;;2.03;;
21266;SDS011;10791;53.108;18.326;2023-08-07T19:38:34;7.10;;;2.38;;
21266;SDS011;10791;53.108;18.326;2023-08-07T19:43:38;6.03;;;1.50;;
21266;SDS011;10791;53.108;18.326;2023-08-07T19:48:46;4.75;;;1.80;;
21266;SDS011;10791;53.108;18.326;2023-08-07T19:53:50;6.13;;;1.77;;
21266;SDS011;10791;53.108;18.326;2023-08-07T19:59:03;4.47;;;1.70;;
21266;SDS011;10791;53.108;18.326;2023-08-07T20:04:11;7.68;;;1.90;;
21266;SDS011;10791;53.108;18.326;2023-08-07T20:09:19;6.82;;;1.85;;
21266;SDS011;10791;53.108;18.326;2023-08-07T20:14:23;4.97;;;1.75;;
21266;SDS011;10791;53.108;18.326;2023-08-07T20:19:27;4.75;;;1.73;;
21266;SDS011;10791;53.108;18.326;2023-08-07T20:24:31;8.60;;;1.92;;
21266;SDS011;10791;53.108;18.326;2023-08-07T20:29:35;8.45;;;2.53;;
21266;SDS011;10791;53.108;18.326;2023-08-07T20:34:39;6.00;;;1.73;;
21266;SDS011;10791;53.108;18.326;2023-08-07T20:39:44;2.65;;;1.60;;
21266;SDS011;10791;53.108;18.326;2023-08-07T20:44:47;6.22;;;1.70;;
21266;SDS011;10791;53.108;18.326;2023-08-07T20:49:52;5.53;;;1.60;;
21266;SDS011;10791;53.108;18.326;2023-08-07T20:54:56;6.78;;;1.75;;
21266;SDS011;10791;53.108;18.326;2023-08-07T20:59:59;7.32;;;1.48;;
21266;SDS011;10791;53.108;18.326;2023-08-07T21:05:05;5.47;;;1.58;;
21266;SDS011;10791;53.108;18.326;2023-08-07T21:10:09;3.63;;;1.65;;
21266;SDS011;10791;53.108;18.326;2023-08-07T21:15:14;3.15;;;1.67;;
21266;SDS011;10791;53.108;18.326;2023-08-07T21:20:17;4.22;;;1.42;;
21266;SDS011;10791;53.108;18.326;2023-08-07T21:25:20;3.55;;;1.50;;
21266;SDS011;10791;53.108;18.326;2023-08-07T21:30:24;4.35;;;1.40;;
21266;SDS011;10791;53.108;18.326;2023-08-07T21:35:31;3.95;;;1.33;;
21266;SDS011;10791;53.108;18.326;2023-08-07T21:40:35;2.80;;;1.20;;
21266;SDS011;10791;53.108;18.326;2023-08-07T21:45:41;4.00;;;0.88;;
21266;SDS011;10791;53.108;18.326;2023-08-07T21:50:45;2.53;;;1.02;;
21266;SDS011;10791;53.108;18.326;2023-08-07T21:55:49;7.07;;;1.30;;
21266;SDS011;10791;53.108;18.326;2023-08-07T22:00:53;6.32;;;1.67;;
21266;SDS011;10791;53.108;18.326;2023-08-07T22:05:57;5.07;;;1.30;;
21266;SDS011;10791;53.108;18.326;2023-08-07T22:11:00;4.72;;;1.10;;
21266;SDS011;10791;53.108;18.326;2023-08-07T22:16:03;3.60;;;1.15;;
21266;SDS011;10791;53.108;18.326;2023-08-07T22:21:07;6.07;;;1.13;;
21266;SDS011;10791;53.108;18.326;2023-08-07T22:26:10;3.30;;;1.25;;
21266;SDS011;10791;53.108;18.326;2023-08-07T22:31:14;4.45;;;1.10;;
21266;SDS011;10791;53.108;18.326;2023-08-07T22:36:17;7.32;;;1.08;;
21266;SDS011;10791;53.108;18.326;2023-08-07T22:41:20;7.10;;;1.27;;
21266;SDS011;10791;53.108;18.326;2023-08-07T22:46:24;5.23;;;1.33;;
21266;SDS011;10791;53.108;18.326;2023-08-07T22:51:27;6.03;;;1.02;;
21266;SDS011;10791;53.108;18.326;2023-08-07T22:56:31;7.60;;;1.33;;
21266;SDS011;10791;53.108;18.326;2023-08-07T23:01:34;3.07;;;0.97;;
21266;SDS011;10791;53.108;18.326;2023-08-07T23:06:37;3.53;;;1.23;;
21266;SDS011;10791;53.108;18.326;2023-08-07T23:11:41;6.03;;;1.30;;
21266;SDS011;10791;53.108;18.326;2023-08-07T23:16:44;9.10;;;1.63;;
21266;SDS011;10791;53.108;18.326;2023-08-07T23:21:47;4.03;;;1.00;;
21266;SDS011;10791;53.108;18.326;2023-08-07T23:26:51;3.60;;;1.30;;
21266;SDS011;10791;53.108;18.326;2023-08-07T23:31:54;3.27;;;1.37;;
21266;SDS011;10791;53.108;18.326;2023-08-07T23:36:58;4.93;;;1.07;;
21266;SDS011;10791;53.108;18.326;2023-08-07T23:42:02;3.93;;;1.30;;
21266;SDS011;10791;53.108;18.326;2023-08-07T23:47:06;7.90;;;1.30;;
21266;SDS011;10791;53.108;18.326;2023-08-07T23:52:10;4.13;;;1.30;;
21266;SDS011;10791;53.108;18.326;2023-08-07T23:57:13;6.27;;;1.93;;
